Time;durP1;ratioP1;P1;durP2;ratioP2;P2;SDS_P1;SDS_P2;PMS_P1;PMS_P2;Temp;Humidity;BMP_temperature;BMP_pressure;BME280_temperature;BME280_humidity;BME280_pressure;Samples;Min_cycle;Max_cycle;Signal;HPM_P1;HPM_P2
2021/10/28 05:03:45;;;;;;;3.15;1.60;;;20.30;51.50;;;;;;5252094;23;20053;-85
2021/10/28 05:06:12;;;;;;;3.72;1.70;;;20.30;51.50;;;;;;5031451;28;20022;-85
2021/10/28 05:08:38;;;;;;;3.67;1.42;;;20.30;51.40;;;;;;5031784;28;20080;-85
2021/10/28 05:11:24;;;;;;;3.10;1.58;;;20.30;51.30;;;;;;5031361;28;20503;-85
2021/10/28 05:13:52;;;;;;;3.08;1.77;;;20.40;51.20;;;;;;5031583;28;20017;-85
2021/10/28 05:16:18;;;;;;;5.40;1.90;;;20.40;51.20;;;;;;4999047;28;20399;-85
2021/10/28 05:18:45;;;;;;;6.43;2.13;;;20.40;51.10;;;;;;5015179;28;20013;-85
2021/10/28 05:21:11;;;;;;;3.55;1.80;;;20.40;51.00;;;;;;5031549;28;20104;-85
2021/10/28 05:23:38;;;;;;;4.78;1.60;;;20.40;51.00;;;;;;5015304;28;20006;-85
2021/10/28 05:26:04;;;;;;;3.15;1.67;;;20.40;50.90;;;;;;5018038;28;20013;-85
2021/10/28 05:28:31;;;;;;;4.65;1.80;;;20.50;51.00;;;;;;5018514;28;20021;-85
2021/10/28 05:30:57;;;;;;;4.22;1.95;;;20.50;50.90;;;;;;5018692;28;20037;-85
2021/10/28 05:33:24;;;;;;;3.33;1.75;;;20.50;50.80;;;;;;5019656;28;20017;-87
2021/10/28 05:35:50;;;;;;;3.28;1.70;;;20.50;50.80;;;;;;5036794;28;20471;-87
2021/10/28 05:38:16;;;;;;;6.03;2.60;;;19.90;52.00;;;;;;5036944;28;20025;-85
2021/10/28 05:40:46;;;;;;;4.07;2.25;;;19.40;53.60;;;;;;5019974;28;20018;-82
2021/10/28 05:43:12;;;;;;;7.28;2.22;;;19.10;54.00;;;;;;5020308;28;20052;-83
2021/10/28 05:45:38;;;;;;;6.35;2.70;;;19.10;54.20;;;;;;5035190;28;20020;-83
2021/10/28 05:48:05;;;;;;;5.05;2.40;;;19.00;54.40;;;;;;5018533;28;20112;-83
2021/10/28 05:50:31;;;;;;;4.95;2.40;;;19.00;54.30;;;;;;5019240;28;20083;-83
2021/10/28 05:52:59;;;;;;;5.65;2.13;;;19.00;54.20;;;;;;5004070;28;20095;-82
2021/10/28 05:55:25;;;;;;;4.65;2.05;;;19.10;54.10;;;;;;5019530;28;20052;-83
2021/10/28 05:57:53;;;;;;;6.32;1.80;;;19.20;54.50;;;;;;5036735;28;20018;-83
2021/10/28 06:00:20;;;;;;;3.35;2.30;;;19.30;53.80;;;;;;5037698;28;20014;-83
2021/10/28 06:02:49;;;;;;;3.45;2.10;;;19.30;53.70;;;;;;5005693;28;20048;-83
2021/10/28 06:05:15;;;;;;;3.47;2.03;;;19.30;53.50;;;;;;5021428;28;20032;-83
2021/10/28 06:07:42;;;;;;;4.50;1.80;;;19.30;53.50;;;;;;5006109;28;20022;-84
2021/10/28 06:10:16;;;;;;;4.18;1.95;;;19.30;53.50;;;;;;5011694;28;20132;-84
2021/10/28 06:12:47;;;;;;;3.22;1.77;;;19.30;53.40;;;;;;5040205;28;20018;-85
2021/10/28 06:15:14;;;;;;;5.53;2.30;;;19.30;53.30;;;;;;5024270;28;20029;-84
2021/10/28 06:17:53;;;;;;;5.40;2.15;;;19.40;53.40;;;;;;5005797;28;20060;-84
2021/10/28 06:20:20;;;;;;;5.07;2.25;;;19.40;53.30;;;;;;5009647;28;20029;-83
2021/10/28 06:22:48;;;;;;;3.80;1.98;;;19.40;53.40;;;;;;5006863;28;20100;-84
2021/10/28 06:25:22;;;;;;;5.93;2.10;;;19.40;53.40;;;;;;5027776;28;20029;-89
2021/10/28 06:27:48;;;;;;;14.68;3.63;;;19.30;54.10;;;;;;5008524;28;20045;-84
2021/10/28 06:30:14;;;;;;;15.68;3.63;;;19.30;55.70;;;;;;5008401;28;20026;-83
2021/10/28 06:32:52;;;;;;;28.63;4.25;;;19.30;56.70;;;;;;5022594;28;20108;-86
2021/10/28 06:35:17;;;;;;;18.52;3.92;;;19.30;57.00;;;;;;5021116;28;20092;-84
2021/10/28 06:37:50;;;;;;;23.90;4.45;;;19.30;57.40;;;;;;5004204;28;20029;-83
2021/10/28 06:40:17;;;;;;;12.00;4.25;;;19.40;57.30;;;;;;5006917;28;20017;-85
2021/10/28 06:42:44;;;;;;;18.60;4.97;;;19.40;57.50;;;;;;5023582;28;20049;-86
2021/10/28 06:45:10;;;;;;;11.38;4.63;;;19.30;57.20;;;;;;5008505;28;20041;-86
2021/10/28 06:47:36;;;;;;;13.45;4.88;;;19.40;57.20;;;;;;5022583;28;20483;-85
2021/10/28 06:50:10;;;;;;;23.17;5.70;;;19.40;57.10;;;;;;5038684;28;20018;-86
2021/10/28 07:03:31;;;;;;;12.15;4.57;;;19.40;56.60;;;;;;5027038;28;20102;-83
2021/10/28 07:06:02;;;;;;;18.33;4.88;;;19.30;56.40;;;;;;5043998;28;20021;-85
2021/10/28 07:08:28;;;;;;;8.88;4.68;;;19.30;56.60;;;;;;5042646;28;20016;-85
2021/10/28 07:10:59;;;;;;;10.90;4.55;;;19.30;56.30;;;;;;5009458;28;20049;-81
2021/10/28 07:13:29;;;;;;;13.23;3.95;;;19.50;57.10;;;;;;5026494;28;20036;-81
2021/10/28 07:16:09;;;;;;;12.23;4.30;;;19.70;57.20;;;;;;5025960;28;20105;-81
2021/10/28 07:21:38;;;;;;;17.10;4.20;;;19.80;55.80;;;;;;5034672;28;20033;-88
2021/10/28 07:35:11;;;;;;;11.88;4.45;;;19.70;54.50;;;;;;5038230;28;20067;-90
2021/10/28 07:57:33;;;;;;;22.75;5.43;;;19.50;54.10;;;;;;5033793;28;20040;-86
2021/10/28 08:18:50;;;;;;;10.40;3.60;;;19.70;53.00;;;;;;5052116;28;20032;-84
2021/10/28 08:29:51;;;;;;;5.00;3.17;;;19.90;52.50;;;;;;5027520;28;20109;-85
2021/10/28 08:32:28;;;;;;;11.57;3.50;;;19.80;52.60;;;;;;5024436;28;20049;-84
2021/10/28 08:34:58;;;;;;;5.68;3.13;;;19.80;52.60;;;;;;5008498;28;20025;-83
2021/10/28 08:37:30;;;;;;;8.60;3.28;;;19.80;52.50;;;;;;5040260;28;20028;-82
2021/10/28 08:40:04;;;;;;;9.85;3.90;;;19.80;52.40;;;;;;5023295;28;20072;-81
2021/10/28 08:42:32;;;;;;;9.85;3.47;;;19.80;52.40;;;;;;5037020;28;20029;-81
2021/10/28 08:44:59;;;;;;;6.93;3.85;;;19.80;52.40;;;;;;5036780;28;20013;-81
2021/10/28 08:47:27;;;;;;;7.28;3.22;;;19.70;52.40;;;;;;5019876;28;20029;-80
2021/10/28 08:55:28;;;;;;;6.53;3.38;;;19.70;52.50;;;;;;5023332;28;20033;-81
2021/10/28 09:24:23;;;;;;;9.73;6.15;;;18.70;56.90;;;;;;5029419;28;20077;-84
2021/10/28 09:27:10;;;;;;;16.75;6.25;;;18.40;57.50;;;;;;5015827;28;20029;-84
2021/10/28 09:29:50;;;;;;;13.13;5.72;;;18.50;57.50;;;;;;5011345;28;20010;-84
2021/10/28 09:32:29;;;;;;;12.80;7.13;;;18.80;57.60;;;;;;5025752;28;20030;-81
2021/10/28 09:43:37;;;;;;;9.90;5.85;;;19.00;56.90;;;;;;5026149;28;20129;-82
2021/10/28 09:46:31;;;;;;;;;;;18.90;57.00;;;;;;5025211;28;20143;-84
2021/10/28 09:51:48;;;;;;;13.10;5.63;;;18.60;58.20;;;;;;5037063;28;20442;-80
2021/10/28 09:54:31;;;;;;;10.23;5.43;;;18.90;57.60;;;;;;5005584;28;20028;-81
2021/10/28 09:59:52;;;;;;;9.80;5.45;;;19.40;57.30;;;;;;5044722;28;20028;-85
2021/10/28 10:02:37;;;;;;;16.98;5.80;;;19.40;56.40;;;;;;5023686;28;20450;-84
2021/10/28 10:05:26;;;;;;;12.18;5.85;;;19.20;56.50;;;;;;5011184;28;20042;-83
2021/10/28 10:07:53;;;;;;;8.45;4.80;;;19.20;56.10;;;;;;5009398;28;20018;-84
2021/10/28 10:10:38;;;;;;;12.00;5.05;;;19.20;55.80;;;;;;5004985;28;20048;-86
2021/10/28 10:13:09;;;;;;;8.77;5.00;;;19.30;55.40;;;;;;5007181;28;20096;-84
2021/10/28 10:15:37;;;;;;;8.63;4.07;;;19.30;55.20;;;;;;5039220;28;20506;-85
2021/10/28 10:18:07;;;;;;;12.45;4.97;;;19.40;55.00;;;;;;5021027;28;20009;-83
2021/10/28 10:20:49;;;;;;;9.27;4.68;;;19.50;54.60;;;;;;5023157;28;20020;-82
2021/10/28 10:26:12;;;;;;;13.68;4.80;;;19.60;54.20;;;;;;5040797;28;20093;-80
2021/10/28 11:28:10;;;;;;;4.13;2.42;;;19.80;53.70;;;;;;5025285;28;20129;-82
2021/10/28 11:31:18;;;;;;;4.88;3.00;;;19.80;53.70;;;;;;5027598;28;20034;-82
2021/10/28 12:14:06;;;;;;;5.05;2.97;;;19.80;53.20;;;;;;5043082;28;20029;-85
2021/10/28 12:16:46;;;;;;;7.03;3.63;;;19.80;53.30;;;;;;5024378;28;20458;-84
2021/10/28 12:45:00;;;;;;;6.68;3.85;;;19.90;52.90;;;;;;5035090;28;20095;-82
2021/10/28 12:53:10;;;;;;;5.50;3.60;;;19.70;53.10;;;;;;5027577;28;20071;-83
2021/10/28 12:55:55;;;;;;;4.93;3.72;;;19.70;53.20;;;;;;5031290;28;21984;-83
2021/10/28 13:48:29;;;;;;;7.20;3.30;;;20.10;52.50;;;;;;5038710;28;20103;-76
2021/10/28 13:51:10;;;;;;;7.35;3.53;;;20.20;52.50;;;;;;5036053;28;20025;-75
2021/10/28 13:54:05;;;;;;;;;;;20.30;52.50;;;;;;5023617;28;20025;-76
2021/10/28 14:21:55;;;;;;;6.07;2.90;;;20.30;51.90;;;;;;5036645;28;20052;-79
2021/10/28 15:28:55;;;;;;;4.60;2.45;;;21.10;50.50;;;;;;5019289;28;20031;-79
2021/10/28 15:47:44;;;;;;;7.47;2.65;;;21.10;50.40;;;;;;4945760;29;20058;-80
2021/10/28 15:51:10;;;;;;;5.20;2.88;;;21.10;50.50;;;;;;4947570;29;20083;-80
2021/10/28 16:01:45;;;;;;;4.95;2.90;;;20.90;51.30;;;;;;4950716;29;20107;-79
2021/10/28 16:23:21;;;;;;;5.15;2.70;;;20.10;53.00;;;;;;5025144;28;20061;-81
2021/10/28 16:25:47;;;;;;;4.75;2.88;;;20.10;53.30;;;;;;5024325;28;20031;-82
2021/10/28 16:28:17;;;;;;;3.78;2.67;;;20.00;53.50;;;;;;5039318;28;20036;-81
2021/10/28 16:30:46;;;;;;;5.53;2.67;;;19.90;53.60;;;;;;5020179;28;20071;-81
2021/10/28 16:33:32;;;;;;;5.78;2.70;;;19.90;54.30;;;;;;5020124;28;20017;-80
2021/10/28 16:35:58;;;;;;;8.45;3.42;;;19.90;53.70;;;;;;5033930;28;20076;-82
2021/10/28 16:38:44;;;;;;;8.50;2.90;;;19.90;53.70;;;;;;5020562;28;20034;-82
2021/10/28 16:41:10;;;;;;;5.20;2.70;;;19.90;53.70;;;;;;5001614;28;20435;-81
2021/10/28 16:43:36;;;;;;;6.38;2.72;;;19.90;53.80;;;;;;5034377;28;20522;-80
2021/10/28 16:46:02;;;;;;;5.00;3.00;;;19.90;53.90;;;;;;5034720;28;20365;-80
2021/10/28 16:48:27;;;;;;;5.55;2.65;;;19.90;53.80;;;;;;5018427;28;20013;-82
2021/10/28 16:50:54;;;;;;;8.90;3.22;;;19.90;53.80;;;;;;5035017;28;20459;-82
2021/10/28 16:53:20;;;;;;;7.97;3.13;;;19.80;53.90;;;;;;5035338;28;20387;-81
2021/10/28 16:55:47;;;;;;;5.70;2.97;;;19.80;54.00;;;;;;5002394;28;20022;-80
2021/10/28 16:58:13;;;;;;;3.85;2.80;;;19.70;54.00;;;;;;5034777;28;20105;-81
2021/10/28 17:00:39;;;;;;;5.07;3.20;;;19.80;54.10;;;;;;5034805;28;20030;-82
2021/10/28 17:03:05;;;;;;;6.93;3.22;;;19.70;54.20;;;;;;5033857;28;20152;-82
2021/10/28 17:05:32;;;;;;;5.80;3.00;;;19.70;54.20;;;;;;5034147;28;20464;-80
2021/10/28 17:07:58;;;;;;;6.50;2.95;;;19.70;54.30;;;;;;5017536;28;20017;-81
2021/10/28 17:10:25;;;;;;;5.65;2.92;;;19.70;54.40;;;;;;5033335;28;20433;-80
2021/10/28 17:12:51;;;;;;;7.70;3.25;;;19.60;54.40;;;;;;5032748;28;20503;-81
2021/10/28 17:15:19;;;;;;;4.90;3.13;;;19.60;54.40;;;;;;5016856;28;20014;-82
2021/10/28 17:17:46;;;;;;;6.30;3.10;;;19.60;54.50;;;;;;5035200;28;20022;-81
2021/10/28 17:20:12;;;;;;;5.88;3.10;;;19.60;54.50;;;;;;5019153;28;20017;-81
2021/10/28 17:22:38;;;;;;;8.23;2.83;;;19.50;54.50;;;;;;5038531;28;20067;-81
2021/10/28 17:25:05;;;;;;;6.80;3.08;;;19.50;54.60;;;;;;5022187;28;20116;-80
2021/10/28 17:27:32;;;;;;;5.05;2.80;;;19.50;54.50;;;;;;5025048;28;20092;-81
2021/10/28 17:29:59;;;;;;;12.52;3.63;;;19.50;54.60;;;;;;5007426;28;20472;-81
2021/10/28 17:32:25;;;;;;;6.85;3.08;;;19.50;54.60;;;;;;5024304;28;20037;-81
2021/10/28 17:34:51;;;;;;;4.80;3.08;;;19.50;54.70;;;;;;5025504;28;20029;-80
2021/10/28 17:37:20;;;;;;;8.68;3.78;;;19.50;54.70;;;;;;5029934;28;20619;-81
2021/10/28 17:39:46;;;;;;;5.10;3.70;;;19.50;54.80;;;;;;5049248;28;20062;-82
2021/10/28 17:42:12;;;;;;;5.63;3.20;;;19.50;54.80;;;;;;5015654;28;20041;-81
2021/10/28 17:47:33;;;;;;;6.05;3.22;;;19.50;54.80;;;;;;5042592;28;20052;-81
2021/10/28 17:49:59;;;;;;;7.10;3.55;;;19.40;54.80;;;;;;5032927;28;20013;-81
2021/10/28 17:52:26;;;;;;;5.60;3.47;;;19.40;54.90;;;;;;5047211;28;20014;-79
2021/10/28 17:54:52;;;;;;;6.55;2.95;;;19.40;54.90;;;;;;5048811;28;20021;-82
2021/10/28 17:57:18;;;;;;;5.22;3.00;;;19.40;55.50;;;;;;5049046;28;20026;-80
2021/10/28 17:59:45;;;;;;;5.35;3.17;;;19.40;54.90;;;;;;5029189;28;20144;-82
2021/10/28 18:02:10;;;;;;;5.43;3.10;;;19.40;54.90;;;;;;5009311;28;20109;-79
2021/10/28 18:04:40;;;;;;;5.55;3.38;;;19.40;54.90;;;;;;5040095;28;20037;-82
2021/10/28 18:07:06;;;;;;;7.25;3.25;;;19.40;54.90;;;;;;5036947;28;20081;-80
2021/10/28 18:09:32;;;;;;;5.05;3.15;;;19.30;54.80;;;;;;5025641;28;20041;-80
2021/10/28 18:11:59;;;;;;;7.82;3.45;;;19.30;54.80;;;;;;5051199;28;20025;-80
2021/10/28 18:14:28;;;;;;;5.45;3.53;;;19.30;54.90;;;;;;5036557;28;20022;-81
2021/10/28 18:16:55;;;;;;;6.95;3.55;;;19.20;55.00;;;;;;5018169;28;20029;-81
2021/10/28 18:19:21;;;;;;;6.47;3.63;;;19.20;54.90;;;;;;5025120;28;20022;-80
2021/10/28 18:21:53;;;;;;;6.65;3.50;;;19.20;55.00;;;;;;5037321;28;20018;-80
2021/10/28 18:24:18;;;;;;;4.47;3.25;;;19.10;54.90;;;;;;5036105;28;20031;-80
2021/10/28 18:26:44;;;;;;;7.22;3.67;;;19.10;55.10;;;;;;5036628;28;20097;-80
2021/10/28 18:29:11;;;;;;;7.80;3.60;;;19.10;55.10;;;;;;5036298;28;20033;-81
2021/10/28 18:31:36;;;;;;;5.05;2.70;;;19.00;55.00;;;;;;5017566;28;20360;-81
2021/10/28 18:34:04;;;;;;;5.80;3.00;;;19.00;55.10;;;;;;5034239;28;20101;-82
2021/10/28 18:36:31;;;;;;;5.10;3.03;;;19.00;55.10;;;;;;5033782;28;20021;-82
2021/10/28 18:38:57;;;;;;;5.38;2.95;;;19.00;55.10;;;;;;5001227;28;20533;-82
2021/10/28 18:41:25;;;;;;;6.13;3.28;;;19.00;55.20;;;;;;5017439;28;20025;-81
2021/10/28 18:43:51;;;;;;;5.75;3.03;;;19.00;55.10;;;;;;5034881;28;20021;-81
2021/10/28 18:46:18;;;;;;;7.85;3.15;;;19.00;55.10;;;;;;5017966;28;20044;-81
2021/10/28 18:48:44;;;;;;;10.02;3.00;;;18.90;55.10;;;;;;5019266;28;20022;-82
2021/10/28 18:51:11;;;;;;;5.10;2.97;;;19.00;55.20;;;;;;5035164;28;20418;-81
2021/10/28 18:53:40;;;;;;;6.07;3.20;;;19.00;55.00;;;;;;5033963;28;20041;-82
2021/10/28 18:56:06;;;;;;;4.63;3.17;;;18.90;55.10;;;;;;5017385;28;20104;-80
2021/10/28 18:58:33;;;;;;;6.25;3.22;;;18.90;55.10;;;;;;5033353;28;20093;-79
2021/10/28 19:00:59;;;;;;;4.32;2.88;;;18.90;55.20;;;;;;5002111;28;20060;-79
2021/10/28 19:03:25;;;;;;;5.15;3.10;;;18.90;55.10;;;;;;5019040;28;20041;-81
2021/10/28 19:05:54;;;;;;;4.63;2.88;;;19.00;55.10;;;;;;5021738;28;20029;-81
2021/10/28 19:08:21;;;;;;;5.20;2.92;;;19.00;55.00;;;;;;5023106;28;20021;-82
2021/10/28 19:10:46;;;;;;;5.97;2.60;;;18.90;55.10;;;;;;5038106;28;20424;-80
2021/10/28 19:13:15;;;;;;;3.83;2.55;;;18.90;55.20;;;;;;5024521;28;20067;-80
2021/10/28 19:15:41;;;;;;;4.78;3.00;;;18.90;55.10;;;;;;5042490;28;20020;-80
2021/10/28 19:18:07;;;;;;;8.43;3.40;;;18.90;55.10;;;;;;5042663;28;20069;-80
2021/10/28 19:20:34;;;;;;;8.80;3.00;;;18.90;55.70;;;;;;5047735;28;20029;-81
2021/10/28 19:23:00;;;;;;;7.60;2.92;;;18.80;55.30;;;;;;5050229;28;20013;-79
2021/10/28 19:25:26;;;;;;;3.88;2.97;;;18.80;55.30;;;;;;5012455;28;20013;-81
2021/10/28 19:27:55;;;;;;;7.80;3.00;;;18.90;55.30;;;;;;5046884;28;20376;-81
2021/10/28 19:32:47;;;;;;;5.97;2.70;;;18.90;55.30;;;;;;5046676;28;20076;-80
2021/10/28 19:35:13;;;;;;;7.50;3.80;;;18.80;55.20;;;;;;5045980;28;20048;-79
2021/10/28 19:37:48;;;;;;;6.40;2.97;;;18.80;55.30;;;;;;5044993;28;20025;-79
2021/10/28 19:40:26;;;;;;;5.65;2.53;;;18.80;55.20;;;;;;5045815;28;20009;-81
2021/10/28 19:48:19;;;;;;;5.95;3.30;;;18.90;55.30;;;;;;5046696;28;20049;-80
2021/10/28 19:50:52;;;;;;;6.97;2.78;;;18.80;55.30;;;;;;5045997;28;20009;-80
2021/10/28 19:53:21;;;;;;;5.97;3.03;;;18.80;55.30;;;;;;5044345;28;20024;-82
2021/10/28 19:55:47;;;;;;;4.05;2.67;;;18.80;55.40;;;;;;5027780;28;20044;-81
2021/10/28 19:58:21;;;;;;;5.05;2.80;;;18.80;55.30;;;;;;5043277;28;20360;-82
2021/10/28 20:01:02;;;;;;;5.43;2.75;;;18.80;55.30;;;;;;5044447;28;20020;-80
2021/10/28 20:22:14;;;;;;;5.53;3.03;;;18.70;55.30;;;;;;5035582;28;20028;-80
2021/10/28 20:24:48;;;;;;;5.40;3.13;;;18.70;55.30;;;;;;5038007;28;20020;-80
2021/10/28 20:27:17;;;;;;;4.35;3.00;;;18.70;55.30;;;;;;5035757;28;20045;-82
2021/10/28 20:29:43;;;;;;;6.47;3.22;;;18.70;55.30;;;;;;5005262;28;20029;-82
2021/10/28 20:32:08;;;;;;;3.45;2.70;;;18.70;55.50;;;;;;5040301;28;20483;-80
2021/10/28 20:34:38;;;;;;;6.00;3.35;;;18.60;55.40;;;;;;5043920;28;20025;-82
2021/10/28 20:37:10;;;;;;;6.20;3.00;;;18.70;55.50;;;;;;5009130;28;20021;-81
2021/10/28 20:39:40;;;;;;;5.07;2.95;;;18.70;55.40;;;;;;5025147;28;20041;-81
2021/10/28 20:42:06;;;;;;;4.05;2.60;;;18.70;55.30;;;;;;5025966;28;20074;-79
2021/10/28 20:44:32;;;;;;;5.40;3.00;;;18.70;55.30;;;;;;5020644;28;20025;-81
2021/10/28 20:47:00;;;;;;;6.18;3.08;;;18.70;55.30;;;;;;5004625;28;20040;-80
2021/10/28 20:49:27;;;;;;;4.90;2.97;;;18.70;55.20;;;;;;5032084;28;20368;-80
2021/10/28 20:51:53;;;;;;;4.68;3.28;;;18.70;55.20;;;;;;5031104;28;20020;-80
2021/10/28 20:54:21;;;;;;;5.20;3.35;;;18.70;55.20;;;;;;5043465;28;20022;-79
2021/10/28 20:56:47;;;;;;;3.58;2.80;;;18.60;55.30;;;;;;5028601;28;20030;-82
2021/10/28 20:59:15;;;;;;;6.47;3.30;;;18.60;55.30;;;;;;5022368;28;20010;-79
2021/10/28 21:01:41;;;;;;;5.20;3.10;;;18.60;55.30;;;;;;5037988;28;20018;-81
2021/10/28 21:04:07;;;;;;;9.05;3.08;;;18.60;56.00;;;;;;5036735;28;20064;-81
2021/10/28 21:06:35;;;;;;;5.55;3.03;;;18.60;55.50;;;;;;5036152;28;20124;-80
2021/10/28 21:09:02;;;;;;;4.18;3.03;;;18.50;55.40;;;;;;5020170;28;20022;-81
2021/10/28 21:11:28;;;;;;;5.63;3.22;;;18.50;55.40;;;;;;5020047;28;20022;-81
2021/10/28 21:14:01;;;;;;;5.65;3.22;;;18.50;55.30;;;;;;5036976;28;20022;-80
2021/10/28 21:16:28;;;;;;;5.75;3.63;;;18.50;55.20;;;;;;5021119;28;20508;-82
2021/10/28 21:18:54;;;;;;;5.80;3.63;;;18.40;55.20;;;;;;5036266;28;20017;-81
2021/10/28 21:21:20;;;;;;;10.00;3.38;;;18.40;55.20;;;;;;5020246;28;20021;-82
2021/10/28 21:23:47;;;;;;;5.18;3.40;;;18.40;55.20;;;;;;5036541;28;20087;-81
2021/10/28 21:26:13;;;;;;;5.50;3.30;;;18.40;55.10;;;;;;5036889;28;20010;-80
2021/10/28 21:28:39;;;;;;;4.68;3.17;;;18.40;55.20;;;;;;5037204;28;20039;-81
2021/10/28 21:31:09;;;;;;;4.40;3.30;;;18.40;55.00;;;;;;5020935;28;20029;-81
2021/10/28 21:33:37;;;;;;;4.90;3.30;;;18.40;55.00;;;;;;5004019;28;20022;-82
2021/10/28 21:36:02;;;;;;;3.58;2.92;;;18.40;55.10;;;;;;5005054;28;20030;-80
2021/10/28 21:38:28;;;;;;;5.88;2.97;;;18.30;55.00;;;;;;5004919;28;20049;-81
2021/10/28 21:40:54;;;;;;;4.18;2.88;;;18.30;55.10;;;;;;5005317;28;20010;-81
2021/10/28 21:43:20;;;;;;;5.25;2.90;;;18.30;55.00;;;;;;5007511;28;20013;-81
2021/10/28 21:45:50;;;;;;;4.18;2.85;;;18.20;54.90;;;;;;5023681;28;20037;-82
2021/10/28 21:48:16;;;;;;;5.20;2.90;;;18.30;54.90;;;;;;5041909;28;20037;-81
2021/10/28 21:50:42;;;;;;;8.35;3.25;;;18.30;54.70;;;;;;5008309;28;20029;-81
2021/10/28 21:53:12;;;;;;;3.58;2.75;;;18.30;54.70;;;;;;5025785;28;20024;-81
2021/10/28 22:24:54;;;;;;;7.53;2.88;;;18.20;54.10;;;;;;5038676;28;20103;-81
2021/10/28 22:27:22;;;;;;;5.50;2.92;;;18.20;54.00;;;;;;5020123;28;20018;-81
2021/10/28 22:29:48;;;;;;;7.43;2.60;;;18.20;54.10;;;;;;5019919;28;20104;-81
2021/10/28 22:32:16;;;;;;;4.75;2.70;;;18.20;54.10;;;;;;5019794;28;20099;-80
2021/10/28 22:34:43;;;;;;;4.70;2.83;;;18.20;54.00;;;;;;5019704;28;20018;-79
2021/10/28 22:37:22;;;;;;;6.60;2.65;;;18.20;54.00;;;;;;5021696;28;20053;-82
2021/10/28 22:42:28;;;;;;;4.60;2.67;;;18.10;54.20;;;;;;5028826;28;20040;-82
2021/10/28 22:44:54;;;;;;;4.68;2.33;;;18.10;54.00;;;;;;5028978;28;20040;-80
2021/10/28 22:47:39;;;;;;;3.05;2.20;;;18.20;54.00;;;;;;5031544;28;20097;-82
2021/10/28 22:50:09;;;;;;;4.85;2.70;;;18.20;53.80;;;;;;5007582;28;20033;-80
2021/10/28 22:52:36;;;;;;;2.40;2.20;;;18.20;53.80;;;;;;5039186;28;20018;-80
2021/10/28 22:55:10;;;;;;;3.40;2.50;;;18.20;53.80;;;;;;5041598;28;20018;-80
2021/10/28 22:57:59;;;;;;;7.20;2.88;;;18.30;53.80;;;;;;5039276;28;20029;-81
2021/10/28 23:03:33;;;;;;;5.18;2.20;;;18.20;53.70;;;;;;5039297;28;20037;-81
2021/10/28 23:11:25;;;;;;;4.10;2.80;;;18.20;53.70;;;;;;5040243;28;20462;-82
2021/10/28 23:21:58;;;;;;;5.45;3.08;;;18.20;53.60;;;;;;5045112;28;20088;-86
2021/10/28 23:24:25;;;;;;;7.47;3.13;;;18.20;53.60;;;;;;5031108;28;20028;-86
2021/10/28 23:26:53;;;;;;;6.03;2.60;;;18.20;53.70;;;;;;5048544;28;20021;-87
2021/10/28 23:29:23;;;;;;;4.55;2.67;;;18.20;53.70;;;;;;5044915;28;20021;-85
2021/10/28 23:31:50;;;;;;;3.72;2.53;;;18.20;53.80;;;;;;5045482;28;20025;-86
2021/10/28 23:34:15;;;;;;;4.68;2.88;;;18.20;53.70;;;;;;5045841;28;20036;-86
2021/10/28 23:36:42;;;;;;;4.30;2.88;;;18.20;53.50;;;;;;5043001;28;20377;-87
2021/10/28 23:39:09;;;;;;;4.22;2.90;;;18.20;53.60;;;;;;5010476;28;20021;-86
2021/10/28 23:41:35;;;;;;;6.72;3.05;;;18.20;53.50;;;;;;5024775;28;20013;-88
2021/10/28 23:44:02;;;;;;;4.10;2.60;;;18.20;53.50;;;;;;5025877;28;20037;-86
2021/10/28 23:46:28;;;;;;;4.32;2.70;;;18.30;53.50;;;;;;5048551;28;20021;-85
2021/10/28 23:48:54;;;;;;;6.25;2.83;;;18.20;53.50;;;;;;5049246;28;20021;-88
2021/10/28 23:51:21;;;;;;;5.43;2.47;;;18.20;53.50;;;;;;5035059;28;20025;-86
2021/10/28 23:53:48;;;;;;;4.03;2.40;;;18.20;53.50;;;;;;5050644;28;20480;-87
2021/10/28 23:56:17;;;;;;;4.70;2.72;;;18.20;53.70;;;;;;5032075;28;20051;-85
2021/10/28 23:58:43;;;;;;;5.72;2.78;;;18.10;53.60;;;;;;5041529;28;20408;-85
